Time;durP1;ratioP1;P1;durP2;ratioP2;P2;SDS_P1;SDS_P2;PMS_P1;PMS_P2;Temp;Humidity;BMP_temperature;BMP_pressure;BME280_temperature;BME280_humidity;BME280_pressure;Samples;Min_cycle;Max_cycle;Signal;HPM_P1;HPM_P2
2023/05/23 00:01:41;;;;;;;8.82;5.72;;;21.10;71.90;;;;;;5053744;28;20025;-76
2023/05/23 00:04:08;;;;;;;12.10;5.53;;;21.10;71.30;;;;;;5053970;28;20025;-76
2023/05/23 00:06:37;;;;;;;8.90;5.97;;;21.10;71.20;;;;;;5053752;28;20024;-75
2023/05/23 00:09:03;;;;;;;8.60;5.38;;;21.10;71.00;;;;;;5053909;28;20039;-75
2023/05/23 00:11:29;;;;;;;11.80;5.50;;;21.10;71.00;;;;;;5053729;28;20024;-75
2023/05/23 00:13:59;;;;;;;13.80;6.57;;;21.10;70.90;;;;;;5053841;28;20043;-75
2023/05/23 00:16:25;;;;;;;7.35;5.78;;;21.10;70.80;;;;;;5053627;28;20033;-75
2023/05/23 00:18:52;;;;;;;9.88;5.65;;;21.10;71.20;;;;;;5035811;28;20390;-76
2023/05/23 00:21:18;;;;;;;8.55;5.40;;;21.00;71.30;;;;;;5053709;28;20052;-76
2023/05/23 00:23:43;;;;;;;9.40;5.72;;;20.90;71.20;;;;;;5053660;28;20053;-75
2023/05/23 00:26:10;;;;;;;7.28;5.40;;;20.90;71.10;;;;;;5053293;28;20025;-76
2023/05/23 00:28:37;;;;;;;12.75;5.60;;;20.90;70.70;;;;;;5053206;28;20021;-76
2023/05/23 00:31:03;;;;;;;6.80;5.68;;;20.80;70.40;;;;;;5053331;28;20036;-76
2023/05/23 00:33:32;;;;;;;7.03;4.90;;;20.80;69.90;;;;;;5053084;28;20049;-76
2023/05/23 00:35:59;;;;;;;7.50;4.90;;;20.80;70.30;;;;;;5052651;28;20025;-75
2023/05/23 00:38:25;;;;;;;11.25;4.93;;;20.90;70.30;;;;;;5035032;28;20472;-76
2023/05/23 00:40:51;;;;;;;8.48;5.53;;;20.90;70.10;;;;;;5053484;28;20507;-75
2023/05/23 00:43:19;;;;;;;9.45;5.38;;;20.90;69.90;;;;;;5053351;28;20024;-76
2023/05/23 00:45:45;;;;;;;10.05;6.60;;;20.90;70.10;;;;;;5053372;28;20392;-75
2023/05/23 00:48:11;;;;;;;10.18;5.53;;;20.90;70.30;;;;;;5053071;28;20032;-75
2023/05/23 00:50:37;;;;;;;11.23;6.07;;;20.90;70.90;;;;;;5052857;28;20057;-75
2023/05/23 00:53:04;;;;;;;9.05;5.80;;;20.80;71.40;;;;;;5053153;28;20515;-75
2023/05/23 00:55:30;;;;;;;9.65;5.88;;;20.80;71.50;;;;;;5050041;28;20086;-75
2023/05/23 00:57:56;;;;;;;8.35;6.07;;;20.80;71.60;;;;;;5050193;28;20036;-76
2023/05/23 01:00:26;;;;;;;7.32;5.75;;;20.80;71.40;;;;;;5050706;28;20029;-75
2023/05/23 01:02:52;;;;;;;10.18;5.20;;;20.80;71.40;;;;;;5052251;28;20025;-75
2023/05/23 01:05:18;;;;;;;8.00;5.63;;;20.70;71.20;;;;;;5052543;28;20029;-76
2023/05/23 01:07:45;;;;;;;8.45;5.75;;;20.70;71.20;;;;;;5052839;28;20021;-76
2023/05/23 01:10:13;;;;;;;7.63;6.22;;;20.70;71.40;;;;;;5052436;28;20029;-76
2023/05/23 01:12:38;;;;;;;12.70;5.45;;;20.70;71.60;;;;;;5052665;28;20120;-75
2023/05/23 01:15:11;;;;;;;8.75;5.72;;;20.70;71.60;;;;;;5051669;28;20465;-76
2023/05/23 01:17:49;;;;;;;8.52;5.82;;;20.60;71.60;;;;;;5052121;28;20025;-75
2023/05/23 01:20:20;;;;;;;16.88;6.25;;;20.60;71.50;;;;;;5052356;28;20094;-75
2023/05/23 01:22:59;;;;;;;9.45;5.97;;;20.60;71.60;;;;;;5052448;28;20021;-75
2023/05/23 01:26:18;;;;;;;12.23;6.72;;;20.60;71.30;;;;;;5052484;28;20469;-76
2023/05/23 01:28:48;;;;;;;15.82;6.78;;;;;;;;;;4994552;28;20030;-75
2023/05/23 01:31:16;;;;;;;11.52;7.03;;;20.50;70.90;;;;;;5030731;28;20029;-76
2023/05/23 01:33:44;;;;;;;12.43;5.68;;;20.50;71.10;;;;;;5052266;28;20052;-75
2023/05/23 01:36:13;;;;;;;9.77;6.05;;;20.40;71.30;;;;;;5052994;28;20380;-75
2023/05/23 01:38:39;;;;;;;9.15;6.10;;;20.30;71.30;;;;;;5052683;28;20536;-75
2023/05/23 01:41:05;;;;;;;14.02;6.50;;;20.30;71.50;;;;;;5052601;28;20096;-75
2023/05/23 01:43:31;;;;;;;11.15;6.65;;;20.20;71.60;;;;;;5052520;28;20017;-76
2023/05/23 01:45:57;;;;;;;7.32;5.78;;;20.10;72.10;;;;;;5052399;28;20029;-75
2023/05/23 01:48:26;;;;;;;14.80;7.93;;;20.10;72.80;;;;;;5054902;28;20028;-75
2023/05/23 01:50:53;;;;;;;10.38;6.43;;;20.00;73.20;;;;;;5056393;28;20438;-76
2023/05/23 01:53:22;;;;;;;13.07;6.88;;;20.00;73.30;;;;;;5056456;28;20021;-75
2023/05/23 01:55:49;;;;;;;13.70;6.63;;;19.90;73.30;;;;;;5056190;28;20412;-75
2023/05/23 01:58:15;;;;;;;13.32;6.95;;;19.90;73.40;;;;;;5056048;28;20032;-76
2023/05/23 02:00:40;;;;;;;11.95;6.55;;;19.90;73.40;;;;;;5056027;28;20033;-75
2023/05/23 02:03:06;;;;;;;15.00;6.53;;;19.90;73.90;;;;;;5056328;28;20017;-76
2023/05/23 02:05:32;;;;;;;12.35;6.30;;;19.80;74.20;;;;;;5056163;28;20045;-76
2023/05/23 02:07:58;;;;;;;11.90;6.95;;;19.70;74.60;;;;;;5056245;28;20075;-76
2023/05/23 02:10:24;;;;;;;9.35;6.07;;;19.70;74.80;;;;;;5038187;28;20029;-75
2023/05/23 02:12:49;;;;;;;9.98;6.22;;;19.70;74.90;;;;;;5056056;28;20029;-75
2023/05/23 02:15:16;;;;;;;8.00;6.13;;;19.70;74.80;;;;;;5055830;28;20024;-75
2023/05/23 02:17:42;;;;;;;12.82;6.35;;;19.60;75.40;;;;;;5038022;28;20032;-75
2023/05/23 02:20:09;;;;;;;10.77;6.25;;;19.70;75.30;;;;;;5055695;28;20036;-75
2023/05/23 02:22:35;;;;;;;7.65;5.82;;;19.70;74.80;;;;;;5055881;28;20024;-75
2023/05/23 02:25:00;;;;;;;9.15;5.45;;;19.70;74.30;;;;;;5055850;28;20108;-76
2023/05/23 02:27:27;;;;;;;9.40;5.53;;;19.70;74.10;;;;;;5055842;28;20103;-75
2023/05/23 02:29:53;;;;;;;8.05;5.78;;;19.70;74.20;;;;;;5047709;28;20474;-75
2023/05/23 02:32:18;;;;;;;8.07;5.82;;;19.60;74.70;;;;;;5035719;28;20021;-75
2023/05/23 02:34:49;;;;;;;11.27;5.85;;;19.60;74.90;;;;;;5052342;28;20049;-75
2023/05/23 02:37:15;;;;;;;10.32;5.25;;;19.60;75.10;;;;;;5055553;28;20017;-76
2023/05/23 02:39:42;;;;;;;9.70;5.78;;;19.60;75.00;;;;;;5055450;28;20492;-76
2023/05/23 02:42:08;;;;;;;10.40;5.60;;;19.60;74.70;;;;;;5055539;28;20514;-75
2023/05/23 02:44:34;;;;;;;9.70;5.55;;;19.60;74.60;;;;;;5055439;28;20033;-76
2023/05/23 02:47:00;;;;;;;10.63;6.53;;;19.60;74.20;;;;;;5037412;28;20028;-75
2023/05/23 02:49:25;;;;;;;8.07;5.70;;;19.60;74.20;;;;;;5054923;28;20025;-75
2023/05/23 02:51:51;;;;;;;9.27;5.60;;;19.60;74.20;;;;;;5055450;28;20595;-75
2023/05/23 02:54:17;;;;;;;8.27;5.07;;;19.60;73.90;;;;;;5055281;28;20032;-74
2023/05/23 02:56:45;;;;;;;8.00;5.10;;;19.60;73.50;;;;;;5055187;28;20047;-76
2023/05/23 02:59:11;;;;;;;8.98;5.18;;;19.60;73.20;;;;;;5054244;28;20124;-76
2023/05/23 03:01:37;;;;;;;7.18;5.10;;;19.60;72.90;;;;;;5055102;28;20457;-76
2023/05/23 03:04:03;;;;;;;8.75;5.20;;;19.60;73.50;;;;;;5055117;28;20021;-76
2023/05/23 03:06:31;;;;;;;6.78;5.28;;;19.60;74.10;;;;;;5055121;28;20496;-75
2023/05/23 03:08:56;;;;;;;6.38;4.57;;;19.50;74.60;;;;;;5055055;28;20103;-76
2023/05/23 03:11:22;;;;;;;9.23;5.00;;;19.60;74.40;;;;;;5036603;28;20545;-76
2023/05/23 03:13:48;;;;;;;7.22;5.20;;;19.50;73.80;;;;;;5054510;28;20029;-76
2023/05/23 03:16:14;;;;;;;10.88;5.40;;;19.50;73.70;;;;;;5054903;28;20053;-75
2023/05/23 03:18:40;;;;;;;9.07;5.28;;;19.50;74.80;;;;;;5054611;28;20389;-75
2023/05/23 03:21:07;;;;;;;8.82;5.82;;;19.40;74.30;;;;;;5054918;28;20068;-75
2023/05/23 03:23:33;;;;;;;12.10;5.82;;;19.40;74.40;;;;;;5054580;28;20017;-76
2023/05/23 03:25:58;;;;;;;11.45;5.80;;;19.40;75.00;;;;;;5052365;28;20131;-76
2023/05/23 03:28:24;;;;;;;9.68;6.03;;;19.40;74.90;;;;;;5051852;28;20040;-76
2023/05/23 03:30:50;;;;;;;8.15;5.90;;;19.40;75.00;;;;;;5053601;28;20056;-75
2023/05/23 03:33:16;;;;;;;11.38;5.90;;;19.30;74.80;;;;;;5054509;28;20079;-76
2023/05/23 03:35:43;;;;;;;13.15;6.35;;;19.40;74.70;;;;;;5054484;28;20121;-76
2023/05/23 03:38:09;;;;;;;9.25;5.88;;;19.40;74.60;;;;;;5054693;28;20025;-75
2023/05/23 03:40:35;;;;;;;9.57;5.88;;;19.30;74.60;;;;;;5054315;28;20043;-75
2023/05/23 03:43:03;;;;;;;8.65;6.03;;;19.30;74.50;;;;;;5054299;28;20028;-75
2023/05/23 03:45:30;;;;;;;15.32;6.22;;;19.30;74.70;;;;;;5054348;28;20488;-75
2023/05/23 03:47:56;;;;;;;11.40;6.22;;;19.30;75.00;;;;;;5054057;28;20385;-77
2023/05/23 03:50:21;;;;;;;14.48;6.80;;;19.20;75.30;;;;;;5054130;28;20031;-75
2023/05/23 03:52:47;;;;;;;13.32;7.13;;;19.20;75.60;;;;;;5054167;28;20103;-75
2023/05/23 03:55:13;;;;;;;14.75;6.38;;;19.10;75.60;;;;;;5054225;28;20017;-75
2023/05/23 03:57:39;;;;;;;20.52;6.80;;;19.10;75.70;;;;;;5054226;28;20109;-75
2023/05/23 04:00:05;;;;;;;19.98;7.15;;;19.10;75.70;;;;;;5053847;28;20055;-75
2023/05/23 04:02:31;;;;;;;11.48;6.72;;;19.00;75.20;;;;;;5053974;28;20136;-76
2023/05/23 04:04:57;;;;;;;15.10;6.65;;;19.00;75.40;;;;;;5053962;28;20036;-76
2023/05/23 04:07:25;;;;;;;17.27;6.40;;;19.00;75.60;;;;;;5053782;28;20017;-75
2023/05/23 04:09:51;;;;;;;15.95;6.40;;;19.00;76.30;;;;;;5053697;28;20040;-75
2023/05/23 04:12:17;;;;;;;11.10;7.05;;;18.90;76.60;;;;;;5053839;28;20025;-75
2023/05/23 04:14:43;;;;;;;20.40;6.78;;;18.90;76.90;;;;;;5053730;28;20087;-75
2023/05/23 04:17:08;;;;;;;14.25;6.88;;;18.90;77.50;;;;;;5053729;28;20517;-76
2023/05/23 04:19:34;;;;;;;17.15;6.38;;;18.80;78.10;;;;;;5053535;28;20474;-75
2023/05/23 04:22:00;;;;;;;15.75;6.63;;;18.90;78.80;;;;;;5053533;28;20017;-75
2023/05/23 04:24:26;;;;;;;10.55;6.22;;;18.90;78.50;;;;;;5053633;28;20033;-76
2023/05/23 04:26:51;;;;;;;15.07;6.53;;;18.90;78.10;;;;;;5053059;28;20024;-75
2023/05/23 04:29:17;;;;;;;14.00;6.53;;;18.90;77.90;;;;;;5052892;28;20036;-76
2023/05/23 04:31:44;;;;;;;13.80;5.65;;;18.90;78.00;;;;;;5053567;28;20061;-75
2023/05/23 04:34:10;;;;;;;16.50;6.32;;;19.00;77.90;;;;;;5053209;28;20049;-76
2023/05/23 04:36:39;;;;;;;13.75;5.90;;;19.00;77.80;;;;;;5053081;28;20021;-75
2023/05/23 04:39:05;;;;;;;12.38;6.00;;;19.00;78.10;;;;;;5053384;28;20041;-75
2023/05/23 04:41:31;;;;;;;18.65;6.30;;;19.00;78.20;;;;;;5052895;28;20096;-75
2023/05/23 04:43:57;;;;;;;12.98;5.75;;;19.00;78.10;;;;;;5052959;28;20029;-75
2023/05/23 04:46:25;;;;;;;18.42;6.18;;;19.10;78.10;;;;;;5053310;28;20036;-75
2023/05/23 04:48:52;;;;;;;7.65;5.32;;;19.10;77.80;;;;;;5053243;28;20380;-76
2023/05/23 04:51:20;;;;;;;10.57;5.68;;;19.10;77.90;;;;;;5052671;28;20025;-76
2023/05/23 04:53:47;;;;;;;8.70;5.68;;;19.20;77.60;;;;;;5052799;28;20017;-78
2023/05/23 04:56:13;;;;;;;14.73;6.25;;;19.20;78.10;;;;;;5034904;28;20500;-77
2023/05/23 04:58:40;;;;;;;12.55;6.05;;;19.20;78.50;;;;;;5052963;28;20489;-77
2023/05/23 05:01:08;;;;;;;10.80;5.93;;;19.30;78.70;;;;;;5052970;28;20107;-78
2023/05/23 05:03:34;;;;;;;13.00;5.13;;;19.30;78.70;;;;;;5052971;28;20108;-75
2023/05/23 05:06:01;;;;;;;10.15;5.50;;;19.30;78.90;;;;;;5053034;28;20029;-77
2023/05/23 05:08:27;;;;;;;17.25;5.80;;;19.40;78.80;;;;;;5052737;28;20028;-78
2023/05/23 05:10:54;;;;;;;10.43;5.30;;;19.40;78.50;;;;;;5035342;28;20111;-76
2023/05/23 05:13:20;;;;;;;14.00;6.13;;;19.50;78.50;;;;;;5052968;28;20017;-76
2023/05/23 05:15:46;;;;;;;19.25;6.15;;;19.50;78.40;;;;;;5052227;28;20036;-78
2023/05/23 05:18:12;;;;;;;16.90;6.43;;;19.40;78.20;;;;;;5052288;28;20033;-76
2023/05/23 05:20:38;;;;;;;14.88;5.88;;;19.40;78.30;;;;;;5052585;28;20059;-76
2023/05/23 05:23:04;;;;;;;17.77;5.95;;;19.50;78.30;;;;;;5052270;28;20021;-76
2023/05/23 05:25:31;;;;;;;30.65;7.03;;;19.50;78.50;;;;;;5052588;28;20055;-76
2023/05/23 05:28:05;;;;;;;19.15;5.82;;;19.50;78.70;;;;;;5052515;28;20036;-76
2023/05/23 05:30:34;;;;;;;26.27;7.07;;;19.50;78.50;;;;;;5052650;28;20036;-77
2023/05/23 05:33:01;;;;;;;25.23;6.40;;;19.50;78.50;;;;;;5052262;28;20045;-77
2023/05/23 05:35:27;;;;;;;21.60;5.85;;;19.60;78.60;;;;;;5052555;28;20021;-77
2023/05/23 05:37:52;;;;;;;20.02;5.88;;;19.60;78.50;;;;;;5052697;28;20491;-77
2023/05/23 05:40:18;;;;;;;26.60;5.78;;;19.70;78.60;;;;;;5052251;28;20118;-75
2023/05/23 05:42:44;;;;;;;15.77;5.35;;;19.70;78.80;;;;;;5052207;28;20111;-75
2023/05/23 05:45:10;;;;;;;14.25;6.13;;;19.70;78.90;;;;;;5052175;28;20029;-74
2023/05/23 05:47:37;;;;;;;17.30;5.60;;;19.80;78.90;;;;;;5051958;28;20035;-74
2023/05/23 05:50:08;;;;;;;24.15;6.20;;;19.80;79.10;;;;;;5051397;28;20040;-74
2023/05/23 05:52:37;;;;;;;25.30;7.75;;;19.90;79.50;;;;;;5052000;28;20071;-75
2023/05/23 05:55:12;;;;;;;37.40;8.85;;;19.90;78.90;;;;;;5052264;28;20025;-75
2023/05/23 05:57:39;;;;;;;44.88;11.52;;;20.00;78.70;;;;;;5052328;28;20025;-75
2023/05/23 06:00:14;;;;;;;39.15;12.77;;;20.00;78.80;;;;;;5052041;28;20043;-75
2023/05/23 06:02:45;;;;;;;42.80;13.05;;;20.00;79.10;;;;;;5052493;28;20083;-75
2023/05/23 06:05:12;;;;;;;39.80;11.07;;;20.10;79.10;;;;;;5052123;28;20021;-75
2023/05/23 06:07:39;;;;;;;34.55;9.60;;;20.20;78.80;;;;;;5052100;28;20385;-75
2023/05/23 06:10:06;;;;;;;32.95;10.30;;;20.20;78.50;;;;;;5052218;28;20108;-76
2023/05/23 06:12:32;;;;;;;35.55;8.25;;;20.30;78.60;;;;;;5052335;28;20083;-75
2023/05/23 06:14:58;;;;;;;28.83;7.32;;;20.30;78.90;;;;;;5034302;28;20025;-75
2023/05/23 06:17:24;;;;;;;29.95;7.55;;;20.30;79.20;;;;;;5052076;28;20017;-75
2023/05/23 06:19:50;;;;;;;24.98;7.88;;;20.40;79.10;;;;;;5052144;28;20037;-75
2023/05/23 06:22:17;;;;;;;21.20;6.65;;;20.50;78.90;;;;;;5052237;28;20491;-75
2023/05/23 06:24:42;;;;;;;14.57;6.40;;;20.50;78.60;;;;;;5052058;28;20048;-75
2023/05/23 06:27:08;;;;;;;18.20;6.82;;;20.60;78.40;;;;;;5052036;28;20025;-75
2023/05/23 06:29:37;;;;;;;12.48;6.30;;;20.60;78.30;;;;;;5052128;28;20017;-75
2023/05/23 06:32:02;;;;;;;27.02;6.80;;;20.70;78.20;;;;;;5052120;28;20025;-75
2023/05/23 06:34:28;;;;;;;13.45;5.88;;;20.80;78.10;;;;;;5052101;28;20646;-75
2023/05/23 06:36:54;;;;;;;15.45;6.25;;;20.80;78.00;;;;;;5055512;28;20043;-75
2023/05/23 06:39:20;;;;;;;13.88;5.70;;;20.90;78.30;;;;;;5055333;28;20087;-75
2023/05/23 06:41:47;;;;;;;12.43;5.20;;;20.90;77.80;;;;;;5055579;28;20028;-75
2023/05/23 06:44:13;;;;;;;14.63;5.32;;;21.00;77.30;;;;;;5055330;28;20036;-75
2023/05/23 06:46:39;;;;;;;11.85;5.82;;;21.10;76.80;;;;;;5055507;28;20025;-75
2023/05/23 06:49:04;;;;;;;10.48;4.88;;;21.10;76.50;;;;;;5050227;28;20101;-75
2023/05/23 06:51:30;;;;;;;6.22;4.90;;;21.20;76.20;;;;;;5035104;28;20022;-75
2023/05/23 06:53:56;;;;;;;14.35;4.78;;;21.30;75.90;;;;;;5035204;28;20438;-71
2023/05/23 06:56:23;;;;;;;12.95;5.40;;;21.30;75.00;;;;;;5035128;28;20092;-71
2023/05/23 06:58:48;;;;;;;10.05;5.15;;;21.40;74.80;;;;;;5033894;28;20033;-70
2023/05/23 07:01:14;;;;;;;6.38;4.70;;;21.60;76.60;;;;;;5034603;28;20025;-72
2023/05/23 07:03:44;;;;;;;11.02;5.22;;;21.60;74.60;;;;;;5034228;28;20052;-71
2023/05/23 07:06:10;;;;;;;11.75;5.60;;;21.60;74.00;;;;;;5035350;28;20034;-71
2023/05/23 07:08:35;;;;;;;8.68;5.13;;;21.70;73.70;;;;;;5034510;28;20022;-72
2023/05/23 07:11:01;;;;;;;11.35;5.97;;;21.80;73.50;;;;;;5040995;28;20110;-72
2023/05/23 07:13:27;;;;;;;17.38;5.75;;;21.90;73.60;;;;;;5054183;28;20087;-71
2023/05/23 07:15:53;;;;;;;12.57;4.82;;;21.90;73.50;;;;;;5035861;28;20051;-72
2023/05/23 07:18:19;;;;;;;12.00;5.47;;;22.00;73.60;;;;;;5053891;28;20083;-72
2023/05/23 07:20:45;;;;;;;18.25;5.43;;;22.10;73.00;;;;;;5053756;28;20041;-72
2023/05/23 07:23:11;;;;;;;12.90;5.43;;;22.20;73.40;;;;;;5035925;28;20499;-71
2023/05/23 07:25:39;;;;;;;9.80;5.18;;;22.20;73.10;;;;;;5054054;28;20064;-72
2023/05/23 07:28:05;;;;;;;12.43;4.72;;;22.30;72.80;;;;;;5053829;28;20024;-73
2023/05/23 07:30:31;;;;;;;9.30;5.10;;;22.30;72.80;;;;;;5035704;28;20029;-71
2023/05/23 07:32:56;;;;;;;9.27;5.18;;;22.40;72.90;;;;;;5053811;28;20377;-72
2023/05/23 07:35:24;;;;;;;10.40;5.47;;;22.40;73.20;;;;;;5054175;28;20104;-72
2023/05/23 07:37:53;;;;;;;10.55;5.18;;;22.50;73.10;;;;;;5053756;28;20009;-71
2023/05/23 07:40:23;;;;;;;11.80;4.70;;;22.60;72.80;;;;;;5053673;28;20116;-71
2023/05/23 07:42:49;;;;;;;9.77;5.15;;;22.70;71.50;;;;;;5053910;28;20017;-72
2023/05/23 07:45:15;;;;;;;10.93;4.55;;;22.80;76.00;;;;;;5055523;22;20137;-72
2023/05/23 07:47:41;;;;;;;9.27;4.50;;;22.80;70.90;;;;;;5034370;28;20392;-72
2023/05/23 07:50:07;;;;;;;11.57;5.07;;;22.80;71.40;;;;;;5034087;28;20116;-72
2023/05/23 07:52:33;;;;;;;13.88;5.32;;;22.90;71.40;;;;;;5034132;28;20036;-71
2023/05/23 07:54:59;;;;;;;8.75;5.10;;;23.00;70.90;;;;;;5033742;28;20100;-71
2023/05/23 07:57:26;;;;;;;10.68;5.13;;;23.00;71.00;;;;;;5034082;28;20025;-72
2023/05/23 07:59:52;;;;;;;11.20;5.00;;;23.10;70.40;;;;;;5016005;28;20109;-72
2023/05/23 08:02:19;;;;;;;8.68;5.18;;;23.10;70.00;;;;;;5033379;28;20028;-72
2023/05/23 08:04:46;;;;;;;9.82;5.10;;;23.20;69.80;;;;;;5033388;28;20026;-72
2023/05/23 08:07:12;;;;;;;7.55;4.25;;;23.30;69.70;;;;;;5033347;28;20021;-72
2023/05/23 08:09:39;;;;;;;5.05;4.30;;;23.30;68.70;;;;;;5033407;28;20021;-72
2023/05/23 08:12:06;;;;;;;8.13;5.50;;;23.40;68.90;;;;;;5032508;28;20180;-72
2023/05/23 08:14:32;;;;;;;12.82;4.90;;;23.50;69.10;;;;;;5033600;28;20465;-72
2023/05/23 08:16:57;;;;;;;7.75;4.68;;;23.50;68.40;;;;;;5033388;28;20025;-72
2023/05/23 08:19:23;;;;;;;8.85;5.07;;;23.60;68.10;;;;;;5033245;28;20040;-72
2023/05/23 08:21:49;;;;;;;6.93;4.80;;;23.70;69.20;;;;;;5032948;28;20029;-72
2023/05/23 08:24:15;;;;;;;9.70;4.68;;;23.80;68.50;;;;;;5033060;28;20024;-72
2023/05/23 08:26:40;;;;;;;8.38;4.85;;;23.90;67.50;;;;;;5032453;28;20414;-72
2023/05/23 08:29:09;;;;;;;6.55;4.40;;;23.90;66.80;;;;;;5032399;28;20044;-72
2023/05/23 08:31:34;;;;;;;5.07;3.95;;;24.00;67.40;;;;;;5015299;28;20389;-72
2023/05/23 08:34:00;;;;;;;9.23;4.28;;;24.10;66.00;;;;;;5033001;28;20018;-72
2023/05/23 08:36:26;;;;;;;5.13;3.70;;;24.10;62.80;;;;;;5033107;28;20103;-72
2023/05/23 08:38:52;;;;;;;5.22;4.22;;;24.20;60.90;;;;;;5032976;28;20018;-72
2023/05/23 08:41:19;;;;;;;9.88;4.18;;;24.20;61.40;;;;;;5033347;28;20022;-72
2023/05/23 08:43:45;;;;;;;12.10;4.45;;;24.30;61.10;;;;;;5032880;28;20026;-72
2023/05/23 08:46:12;;;;;;;8.13;4.50;;;24.30;61.10;;;;;;5014009;28;20493;-72
2023/05/23 08:48:38;;;;;;;8.35;4.68;;;24.40;62.10;;;;;;5031388;28;20025;-72
2023/05/23 08:51:06;;;;;;;9.02;4.63;;;24.50;62.20;;;;;;5013543;28;20108;-72
2023/05/23 08:53:36;;;;;;;8.73;4.65;;;24.50;62.60;;;;;;5031064;28;20662;-72
2023/05/23 08:56:02;;;;;;;9.63;4.97;;;24.60;63.10;;;;;;5031656;28;20104;-72
2023/05/23 08:58:33;;;;;;;8.18;4.90;;;24.70;62.50;;;;;;5014838;28;20022;-72
2023/05/23 09:00:59;;;;;;;7.97;4.60;;;24.80;61.00;;;;;;5033171;28;20497;-72
2023/05/23 09:03:26;;;;;;;8.55;4.60;;;24.90;61.90;;;;;;5015464;28;20116;-72
2023/05/23 09:05:53;;;;;;;10.55;4.70;;;25.00;66.20;;;;;;5032696;28;20037;-72
2023/05/23 09:08:20;;;;;;;9.23;4.80;;;24.90;60.20;;;;;;5032517;28;20009;-72
2023/05/23 09:10:49;;;;;;;9.05;5.13;;;25.00;61.30;;;;;;5032611;28;20037;-71
2023/05/23 09:13:16;;;;;;;10.68;4.70;;;25.10;61.30;;;;;;5032691;28;20108;-71
2023/05/23 09:16:01;;;;;;;6.43;4.35;;;25.10;61.60;;;;;;5032934;28;20028;-71
2023/05/23 09:18:33;;;;;;;10.10;4.35;;;25.20;62.20;;;;;;5032432;28;20040;-71
2023/05/23 09:21:00;;;;;;;9.93;4.65;;;25.30;62.50;;;;;;5031856;28;20029;-72
2023/05/23 09:23:28;;;;;;;11.55;4.10;;;25.30;60.30;;;;;;5032390;28;20022;-71
2023/05/23 09:25:54;;;;;;;7.68;4.40;;;25.40;60.40;;;;;;5032300;28;20033;-72
2023/05/23 09:28:19;;;;;;;6.70;4.45;;;25.50;60.10;;;;;;5025563;28;20010;-72
2023/05/23 09:30:45;;;;;;;7.47;4.10;;;25.50;60.70;;;;;;5017596;28;20033;-72
2023/05/23 09:33:13;;;;;;;9.30;5.13;;;25.60;62.90;;;;;;5027958;28;20021;-72
2023/05/23 09:35:45;;;;;;;7.72;4.75;;;25.60;58.90;;;;;;5032460;28;20030;-72
2023/05/23 09:38:11;;;;;;;6.72;4.18;;;25.70;60.20;;;;;;5032410;28;20018;-72
2023/05/23 09:40:36;;;;;;;9.63;4.90;;;25.80;60.20;;;;;;5014379;28;20068;-72
2023/05/23 09:43:04;;;;;;;12.48;4.43;;;25.80;60.10;;;;;;5032690;28;20025;-72
2023/05/23 09:45:31;;;;;;;8.45;4.28;;;25.90;59.00;;;;;;5032540;28;20100;-72
2023/05/23 09:47:56;;;;;;;13.00;4.97;;;25.90;58.30;;;;;;5031889;28;20041;-72
2023/05/23 09:50:23;;;;;;;8.70;4.63;;;26.00;57.80;;;;;;5032244;28;20484;-72
2023/05/23 09:52:50;;;;;;;8.77;4.60;;;26.10;57.30;;;;;;5014665;28;20009;-72
2023/05/23 09:55:16;;;;;;;8.48;4.65;;;26.10;56.70;;;;;;5032159;28;20033;-72
2023/05/23 09:57:42;;;;;;;9.43;4.90;;;26.10;57.30;;;;;;5031874;28;20499;-72
2023/05/23 10:00:12;;;;;;;10.32;4.82;;;26.20;57.30;;;;;;5032089;28;20041;-72
2023/05/23 10:02:54;;;;;;;8.80;4.65;;;26.30;56.40;;;;;;5032322;28;20025;-72
2023/05/23 10:05:47;;;;;;;8.57;4.57;;;26.30;57.50;;;;;;5032452;28;20063;-72
2023/05/23 10:08:55;;;;;;;9.75;4.95;;;26.40;56.30;;;;;;5023849;28;20037;-72
2023/05/23 10:11:35;;;;;;;9.85;4.85;;;26.40;57.50;;;;;;4955187;28;20058;-72
2023/05/23 10:14:12;;;;;;;9.95;4.63;;;26.40;56.50;;;;;;4955382;28;20031;-72
2023/05/23 10:16:49;;;;;;;12.55;4.80;;;26.50;55.80;;;;;;5006490;28;20094;-72
2023/05/23 10:19:26;;;;;;;9.52;4.40;;;26.50;56.30;;;;;;5035745;28;20446;-72
2023/05/23 10:22:05;;;;;;;10.30;4.47;;;26.60;56.60;;;;;;5035676;28;20079;-72
2023/05/23 10:24:31;;;;;;;9.27;4.53;;;26.60;55.60;;;;;;5017874;28;20029;-73
2023/05/23 10:26:57;;;;;;;10.43;4.78;;;26.70;54.50;;;;;;5035524;28;20708;-72
2023/05/23 10:29:24;;;;;;;9.23;4.43;;;26.70;53.40;;;;;;5035507;28;20504;-72
2023/05/23 10:31:51;;;;;;;8.00;4.70;;;26.60;53.90;;;;;;5035465;28;20013;-72
2023/05/23 10:34:36;;;;;;;8.70;4.28;;;26.70;53.40;;;;;;5035512;28;20022;-73
2023/05/23 10:37:04;;;;;;;10.35;4.80;;;26.70;53.20;;;;;;5035762;28;20021;-72
2023/05/23 10:39:45;;;;;;;12.73;5.10;;;26.70;53.30;;;;;;5035524;28;20458;-72
2023/05/23 10:42:30;;;;;;;11.75;4.38;;;26.70;55.10;;;;;;5035020;28;20149;-73
2023/05/23 10:45:14;;;;;;;12.32;5.00;;;26.80;54.60;;;;;;5034902;28;20401;-73
2023/05/23 10:47:40;;;;;;;6.65;5.07;;;26.90;55.60;;;;;;5035142;28;20029;-72
2023/05/23 10:50:06;;;;;;;20.00;5.43;;;26.90;55.40;;;;;;5035377;28;20091;-72
2023/05/23 10:52:39;;;;;;;10.07;5.40;;;27.00;54.10;;;;;;5035333;28;20049;-72
2023/05/23 10:55:13;;;;;;;11.20;4.95;;;27.00;55.00;;;;;;5034946;28;20026;-72
2023/05/23 10:57:42;;;;;;;11.50;5.22;;;27.00;55.20;;;;;;5035164;28;20032;-72
2023/05/23 11:00:15;;;;;;;12.75;5.35;;;27.00;54.70;;;;;;5035186;28;20079;-72
2023/05/23 11:02:56;;;;;;;10.32;5.00;;;27.00;55.60;;;;;;5034767;28;20037;-71
2023/05/23 11:05:23;;;;;;;14.40;5.00;;;27.10;56.40;;;;;;5035170;28;20056;-72
2023/05/23 11:08:16;;;;;;;10.45;5.25;;;27.10;54.50;;;;;;5035012;28;20372;-72
2023/05/23 11:10:52;;;;;;;8.60;4.63;;;27.10;54.70;;;;;;5034770;28;20109;-72
2023/05/23 11:13:20;;;;;;;10.02;4.25;;;27.10;54.60;;;;;;5034965;28;20029;-72
2023/05/23 11:15:47;;;;;;;9.60;4.30;;;27.10;53.20;;;;;;5034980;28;20112;-72
2023/05/23 11:18:21;;;;;;;12.45;4.38;;;27.10;53.00;;;;;;5035362;28;20500;-72
2023/05/23 11:20:48;;;;;;;9.45;4.65;;;27.10;51.60;;;;;;5034227;28;20041;-72
2023/05/23 11:23:14;;;;;;;7.55;4.20;;;27.10;51.10;;;;;;5034748;28;20049;-72
2023/05/23 11:25:49;;;;;;;10.60;4.80;;;27.00;51.40;;;;;;5035324;28;20056;-72
2023/05/23 11:28:16;;;;;;;8.27;4.22;;;27.10;50.10;;;;;;5034762;28;20025;-72
2023/05/23 11:30:42;;;;;;;10.23;4.50;;;27.00;49.70;;;;;;5034760;28;20091;-72
2023/05/23 11:33:14;;;;;;;7.22;4.32;;;27.10;50.10;;;;;;5034814;28;20026;-72
2023/05/23 11:35:44;;;;;;;8.82;4.47;;;27.10;49.20;;;;;;5034476;28;20083;-72
2023/05/23 11:38:10;;;;;;;7.40;4.45;;;27.00;49.80;;;;;;5034155;28;20021;-71
2023/05/23 11:40:40;;;;;;;7.93;4.30;;;27.00;49.70;;;;;;5034202;28;20498;-72
2023/05/23 11:43:08;;;;;;;10.23;4.30;;;27.10;49.20;;;;;;5016732;28;20029;-72
2023/05/23 11:45:36;;;;;;;12.75;4.10;;;27.10;50.30;;;;;;5033146;28;20049;-72
2023/05/23 11:48:09;;;;;;;6.53;3.95;;;27.10;48.90;;;;;;5033074;28;20470;-72
2023/05/23 11:50:50;;;;;;;8.48;4.22;;;27.10;50.20;;;;;;5033776;28;20524;-71
2023/05/23 11:53:19;;;;;;;5.75;3.65;;;27.10;50.20;;;;;;5034623;28;20034;-72
2023/05/23 11:55:57;;;;;;;6.93;4.15;;;27.10;49.30;;;;;;5033259;28;20025;-72
2023/05/23 11:58:28;;;;;;;10.93;4.03;;;27.10;49.20;;;;;;5031343;28;20036;-72
2023/05/23 12:01:03;;;;;;;11.98;4.78;;;27.10;48.90;;;;;;5031214;28;20037;-72
2023/05/23 12:03:30;;;;;;;9.50;4.38;;;27.10;48.50;;;;;;5031885;28;20033;-72
2023/05/23 12:05:57;;;;;;;7.20;5.15;;;27.10;48.90;;;;;;5033876;28;20018;-72
2023/05/23 12:08:24;;;;;;;10.75;4.78;;;27.10;48.60;;;;;;5016105;28;20029;-72
2023/05/23 12:10:57;;;;;;;7.50;4.40;;;27.10;48.60;;;;;;5016213;28;20051;-72
2023/05/23 12:13:24;;;;;;;11.93;5.00;;;27.10;49.40;;;;;;5033534;28;20060;-73
2023/05/23 12:15:57;;;;;;;10.85;4.32;;;27.10;50.80;;;;;;5033640;28;20132;-72
2023/05/23 12:18:26;;;;;;;6.70;4.18;;;27.10;48.90;;;;;;5033642;28;20030;-73
2023/05/23 12:20:52;;;;;;;6.18;4.13;;;27.20;49.40;;;;;;5033132;28;20362;-73
2023/05/23 12:23:22;;;;;;;10.02;4.63;;;27.20;48.40;;;;;;5033268;28;20032;-73
2023/05/23 12:25:55;;;;;;;7.47;4.15;;;27.20;47.90;;;;;;5033604;28;20049;-73
2023/05/23 12:28:33;;;;;;;13.27;4.60;;;27.20;47.60;;;;;;5032872;28;20052;-73
2023/05/23 12:30:58;;;;;;;6.95;4.05;;;27.20;48.10;;;;;;5033143;28;20156;-75
2023/05/23 12:33:24;;;;;;;7.03;4.30;;;27.20;48.20;;;;;;5032322;28;20100;-73
2023/05/23 12:35:50;;;;;;;11.05;4.80;;;27.20;49.10;;;;;;5032923;28;20025;-74
2023/05/23 12:38:16;;;;;;;8.80;4.50;;;27.20;48.70;;;;;;5033200;28;20033;-74
2023/05/23 12:40:42;;;;;;;8.50;4.20;;;27.20;49.50;;;;;;5032903;28;20030;-73
2023/05/23 12:43:09;;;;;;;11.82;4.45;;;27.20;48.30;;;;;;5032963;28;20018;-72
2023/05/23 12:45:36;;;;;;;7.80;4.47;;;27.30;47.70;;;;;;5031755;28;20065;-73